createdAt,value
2022-12-06T00:02:24.597Z,65.12
2022-12-06T00:05:26.371Z,65.29
2022-12-06T00:08:27.915Z,65.40
2022-12-06T00:11:32.111Z,65.25
2022-12-06T00:14:33.651Z,65.16
2022-12-06T00:17:38.781Z,65.30
2022-12-06T00:20:43.116Z,65.21
2022-12-06T00:23:47.495Z,65.45
2022-12-06T00:26:50.261Z,65.22
2022-12-06T00:29:51.798Z,65.33
2022-12-06T00:32:53.375Z,65.37
2022-12-06T00:35:59.720Z,65.56
2022-12-06T00:39:04.353Z,65.29
2022-12-06T00:42:06.014Z,65.41
2022-12-06T00:45:08.505Z,65.39
2022-12-06T00:48:10.104Z,65.72
2022-12-06T00:51:12.649Z,65.52
2022-12-06T00:54:16.015Z,65.62
2022-12-06T00:57:17.555Z,65.60
2022-12-06T01:00:19.475Z,65.28
2022-12-06T01:03:21.920Z,65.61
2022-12-06T01:06:28.088Z,65.37
2022-12-06T01:09:31.026Z,65.47
2022-12-06T01:12:32.595Z,65.58
2022-12-06T01:15:37.435Z,65.48
2022-12-06T01:18:39.590Z,65.72
2022-12-06T01:21:41.187Z,65.75
2022-12-06T01:24:42.765Z,65.56
2022-12-06T01:27:44.299Z,65.60
2022-12-06T01:30:45.850Z,65.88
2022-12-06T01:33:48.060Z,65.77
2022-12-06T01:36:50.173Z,65.77
2022-12-06T01:39:51.747Z,65.66
2022-12-06T01:42:53.298Z,65.57
2022-12-06T01:45:55.301Z,65.48
2022-12-06T01:49:01.499Z,65.64
2022-12-06T01:52:07.942Z,65.72
2022-12-06T01:55:13.164Z,65.69
2022-12-06T01:58:18.644Z,65.58
2022-12-06T02:01:20.588Z,65.65
2022-12-06T02:04:23.466Z,65.57
2022-12-06T02:07:27.372Z,65.80
2022-12-06T02:10:29.636Z,65.60
2022-12-06T02:13:32.664Z,65.59
2022-12-06T02:16:52.254Z,65.58
2022-12-06T02:19:59.908Z,65.83
2022-12-06T02:23:19.531Z,65.51
2022-12-06T02:26:42.175Z,65.55
2022-12-06T02:30:09.442Z,65.53
2022-12-06T02:33:26.869Z,65.64
2022-12-06T02:36:40.632Z,65.93
2022-12-06T02:39:42.540Z,65.55
2022-12-06T02:42:50.002Z,65.78
2022-12-06T02:45:56.775Z,65.64
2022-12-06T02:49:02.571Z,65.99
2022-12-06T02:52:04.929Z,65.84
2022-12-06T02:55:09.839Z,65.90
2022-12-06T02:58:11.531Z,65.57
2022-12-06T03:01:17.004Z,65.53
2022-12-06T03:04:46.600Z,65.93
2022-12-06T03:07:50.561Z,65.75
2022-12-06T03:10:57.818Z,65.70
2022-12-06T03:14:08.934Z,65.80
2022-12-06T03:17:32.760Z,65.81
2022-12-06T03:20:42.852Z,65.57
2022-12-06T03:23:49.046Z,66.01
2022-12-06T03:26:54.433Z,65.70
2022-12-06T03:30:00.369Z,65.52
2022-12-06T03:33:03.683Z,65.73
2022-12-06T03:36:07.662Z,65.71
2022-12-06T03:39:10.262Z,65.70
2022-12-06T03:42:12.320Z,65.90
2022-12-06T03:45:14.671Z,66.00
2022-12-06T03:48:41.059Z,65.83
2022-12-06T03:51:44.653Z,65.96
2022-12-06T03:54:46.239Z,65.98
2022-12-06T03:57:47.777Z,65.87
2022-12-06T04:00:49.351Z,65.80
2022-12-06T04:03:51.053Z,65.68
2022-12-06T04:06:52.918Z,65.60
2022-12-06T04:10:03.218Z,66.03
2022-12-06T04:13:06.272Z,65.78
2022-12-06T04:16:28.785Z,65.90
2022-12-06T04:19:30.472Z,65.61
2022-12-06T04:22:52.345Z,66.03
2022-12-06T04:25:53.982Z,65.63
2022-12-06T04:29:14.498Z,65.88
2022-12-06T04:32:34.757Z,65.87
2022-12-06T04:35:54.563Z,66.00
2022-12-06T04:38:56.111Z,65.97
2022-12-06T04:42:16.495Z,65.71
2022-12-06T04:45:18.031Z,65.78
2022-12-06T04:48:19.559Z,65.59
2022-12-06T04:51:21.684Z,65.71
2022-12-06T04:54:23.816Z,66.03
2022-12-06T04:57:25.348Z,65.88
2022-12-06T05:00:26.948Z,65.65
2022-12-06T05:03:28.616Z,65.94
2022-12-06T05:06:30.365Z,65.52
2022-12-06T05:09:31.914Z,65.61
2022-12-06T05:12:33.444Z,65.75
2022-12-06T05:15:34.968Z,65.65
2022-12-06T05:18:36.560Z,65.58
2022-12-06T05:21:38.521Z,65.69
2022-12-06T05:24:40.070Z,65.79
2022-12-06T05:27:41.596Z,65.82
2022-12-06T05:30:43.093Z,65.71
2022-12-06T05:33:45.318Z,65.77
2022-12-06T05:36:46.888Z,65.74
2022-12-06T05:39:48.578Z,65.68
2022-12-06T05:42:50.167Z,65.85
2022-12-06T05:45:55.151Z,65.82
2022-12-06T05:48:56.728Z,65.88
2022-12-06T05:52:03.623Z,65.58
2022-12-06T05:55:05.857Z,65.61
2022-12-06T05:58:07.612Z,65.89
2022-12-06T06:01:09.763Z,65.74
2022-12-06T06:04:11.264Z,65.63
2022-12-06T06:07:12.792Z,65.49
2022-12-06T06:10:14.582Z,65.82
2022-12-06T06:13:16.220Z,65.60
2022-12-06T06:16:17.743Z,65.74
2022-12-06T06:19:19.632Z,66.27
2022-12-06T06:22:23.103Z,66.24
2022-12-06T06:25:24.651Z,65.88
2022-12-06T06:28:26.195Z,65.59
2022-12-06T06:31:27.851Z,65.52
2022-12-06T06:34:29.455Z,65.56
2022-12-06T06:37:32.452Z,65.48
2022-12-06T06:40:34.950Z,65.26
2022-12-06T06:43:36.548Z,65.18
2022-12-06T06:46:38.349Z,65.33
2022-12-06T06:49:40.934Z,65.29
2022-12-06T06:52:42.544Z,65.28
2022-12-06T06:55:45.862Z,65.20
2022-12-06T06:58:47.422Z,65.51
2022-12-06T07:01:49.210Z,65.29
2022-12-06T07:04:51.050Z,65.13
2022-12-06T07:07:52.962Z,65.19
2022-12-06T07:10:54.773Z,65.08
2022-12-06T07:13:56.760Z,65.04
2022-12-06T07:16:58.526Z,64.90
2022-12-06T07:20:00.427Z,65.19
2022-12-06T07:23:02.664Z,64.77
2022-12-06T07:26:16.444Z,65.05
2022-12-06T07:29:17.992Z,65.63
2022-12-06T07:32:19.556Z,65.09
2022-12-06T07:35:21.654Z,65.32
2022-12-06T07:38:23.212Z,65.30
2022-12-06T07:41:45.061Z,65.01
2022-12-06T07:45:02.573Z,65.38
2022-12-06T07:48:05.071Z,65.26
2022-12-06T07:51:07.446Z,65.26
2022-12-06T07:54:09.228Z,64.96
2022-12-06T07:57:10.734Z,65.15
2022-12-06T08:00:15.264Z,65.29
2022-12-06T08:03:17.698Z,65.44
2022-12-06T08:06:19.248Z,65.39
2022-12-06T08:09:20.856Z,66.75
2022-12-06T08:12:23.013Z,65.89
2022-12-06T08:15:24.613Z,65.80
2022-12-06T08:18:26.191Z,65.30
2022-12-06T08:21:28.071Z,65.32
2022-12-06T08:24:29.579Z,65.56
2022-12-06T08:27:31.324Z,65.41
2022-12-06T08:30:33.429Z,65.30
2022-12-06T08:33:35.599Z,65.55
2022-12-06T08:36:39.220Z,65.55
2022-12-06T08:39:40.820Z,65.36
2022-12-06T08:42:43.503Z,65.19
2022-12-06T08:45:50.389Z,65.44
2022-12-06T08:48:52.564Z,65.48
2022-12-06T08:51:54.552Z,65.57
2022-12-06T08:54:56.158Z,65.73
2022-12-06T08:57:57.663Z,65.58
2022-12-06T09:00:59.258Z,65.68
2022-12-06T09:04:01.862Z,65.57
2022-12-06T09:07:06.317Z,65.52
2022-12-06T09:10:11.997Z,65.57
2022-12-06T09:13:13.579Z,65.47
2022-12-06T09:16:21.014Z,65.71
2022-12-06T09:19:22.742Z,65.58
2022-12-06T09:22:24.546Z,65.50
2022-12-06T09:25:26.115Z,65.61
2022-12-06T09:28:29.508Z,65.73
2022-12-06T09:31:31.178Z,65.64
2022-12-06T09:34:32.845Z,65.44
2022-12-06T09:37:34.551Z,65.43
2022-12-06T09:41:00.978Z,65.73
2022-12-06T09:44:17.663Z,65.57
2022-12-06T09:47:45.153Z,65.60
2022-12-06T09:50:59.014Z,65.70
2022-12-06T09:54:22.682Z,65.54
2022-12-06T09:57:30.101Z,65.73
2022-12-06T10:00:47.152Z,65.76
2022-12-06T10:04:13.194Z,65.39
2022-12-06T10:07:23.856Z,65.59
2022-12-06T10:11:02.740Z,65.69
2022-12-06T10:14:35.751Z,65.52
2022-12-06T10:18:04.844Z,65.47
2022-12-06T10:21:30.129Z,65.54
2022-12-06T10:25:09.880Z,65.80
2022-12-06T10:28:25.557Z,65.63
2022-12-06T10:31:57.042Z,65.57
2022-12-06T10:35:11.582Z,65.58
2022-12-06T10:38:23.652Z,65.58
2022-12-06T10:41:34.045Z,65.53
2022-12-06T10:44:50.115Z,65.54
2022-12-06T10:47:55.192Z,65.51
2022-12-06T10:51:07.617Z,65.71
2022-12-06T10:54:18.281Z,65.62
2022-12-06T10:57:32.137Z,65.47
2022-12-06T11:00:52.608Z,65.62
2022-12-06T11:04:10.772Z,65.67
2022-12-06T11:07:18.102Z,65.64
2022-12-06T11:10:24.489Z,65.55
2022-12-06T11:13:45.086Z,65.71
2022-12-06T11:17:03.836Z,65.46
2022-12-06T11:20:21.284Z,66.22
2022-12-06T11:23:45.695Z,65.90
2022-12-06T11:26:53.308Z,65.69
2022-12-06T11:29:54.862Z,65.41
2022-12-06T11:32:56.479Z,65.40
2022-12-06T11:36:02.796Z,65.91
2022-12-06T11:39:04.961Z,65.62
2022-12-06T11:42:08.648Z,65.50
2022-12-06T11:45:21.793Z,65.78
2022-12-06T11:48:26.069Z,65.71
2022-12-06T11:51:27.597Z,65.56
2022-12-06T11:54:39.351Z,65.34
2022-12-06T11:57:58.550Z,65.29
2022-12-06T12:01:02.102Z,65.50
2022-12-06T12:04:26.530Z,65.50
2022-12-06T12:07:28.392Z,65.38
2022-12-06T12:10:38.185Z,65.68
2022-12-06T12:13:50.873Z,65.60
2022-12-06T12:16:58.590Z,65.48
2022-12-06T12:20:09.242Z,65.46
2022-12-06T12:23:24.908Z,65.39
2022-12-06T12:26:36.824Z,65.28
2022-12-06T12:29:38.380Z,65.59
2022-12-06T12:32:39.909Z,65.45
2022-12-06T12:35:44.998Z,65.52
2022-12-06T12:38:57.482Z,65.58
2022-12-06T12:41:59.411Z,65.24
2022-12-06T12:45:04.422Z,65.49
2022-12-06T12:48:26.714Z,65.43
2022-12-06T12:51:37.119Z,65.33
2022-12-06T12:54:39.120Z,65.38
2022-12-06T12:57:43.186Z,65.34
2022-12-06T13:00:47.797Z,65.31
2022-12-06T13:03:52.964Z,65.06
2022-12-06T13:06:57.968Z,65.04
2022-12-06T13:10:07.234Z,65.35
2022-12-06T13:13:22.545Z,65.17
2022-12-06T13:16:35.724Z,65.08
2022-12-06T13:19:42.008Z,65.48
2022-12-06T13:22:45.487Z,65.47
2022-12-06T13:26:12.845Z,65.67
2022-12-06T13:29:20.486Z,65.22
2022-12-06T13:32:40.715Z,65.51
2022-12-06T13:35:53.964Z,65.42
2022-12-06T13:38:56.213Z,65.37
2022-12-06T13:42:17.123Z,65.54
2022-12-06T13:45:47.089Z,65.43
2022-12-06T13:48:50.010Z,65.22
2022-12-06T13:51:51.907Z,65.10
2022-12-06T13:54:53.666Z,65.10
2022-12-06T13:57:55.188Z,65.10
2022-12-06T14:00:57.258Z,65.17
2022-12-06T14:04:01.107Z,65.24
2022-12-06T14:10:14.530Z,65.18
2022-12-06T14:13:20.896Z,65.30
2022-12-06T14:16:26.831Z,66.09
2022-12-06T14:19:28.331Z,66.49
2022-12-06T14:22:34.611Z,65.74
2022-12-06T14:25:36.175Z,65.25
2022-12-06T14:28:37.734Z,64.96
2022-12-06T14:31:40.816Z,65.05
2022-12-06T14:34:42.353Z,64.79
2022-12-06T14:38:01.933Z,64.77
2022-12-06T14:41:21.842Z,64.91
2022-12-06T14:44:31.820Z,64.69
2022-12-06T14:47:34.120Z,64.96
2022-12-06T14:50:50.864Z,64.91
2022-12-06T14:53:52.765Z,64.73
2022-12-06T14:56:54.345Z,65.03
2022-12-06T15:00:26.683Z,64.99
2022-12-06T15:03:34.606Z,65.09
2022-12-06T15:06:37.942Z,64.96
2022-12-06T15:09:45.407Z,64.56
2022-12-06T15:12:57.775Z,65.03
2022-12-06T15:16:08.492Z,65.11
2022-12-06T15:19:13.007Z,64.71
2022-12-06T15:22:24.832Z,64.90
2022-12-06T15:25:26.988Z,64.93
2022-12-06T15:28:28.578Z,64.65
2022-12-06T15:31:31.548Z,64.52
2022-12-06T15:34:37.106Z,64.96
2022-12-06T15:37:40.381Z,64.48
2022-12-06T15:40:47.541Z,64.83
2022-12-06T15:43:49.959Z,64.76
2022-12-06T15:46:52.584Z,64.79
2022-12-06T15:49:58.028Z,64.53
2022-12-06T15:52:59.611Z,64.49
2022-12-06T15:56:01.147Z,65.09
2022-12-06T15:59:02.650Z,64.73
2022-12-06T16:02:04.329Z,64.50
2022-12-06T16:05:06.203Z,64.36
2022-12-06T16:08:08.079Z,64.52
2022-12-06T16:11:12.478Z,64.69
2022-12-06T16:14:14.783Z,64.34
2022-12-06T16:17:16.290Z,64.27
2022-12-06T16:20:33.358Z,64.50
2022-12-06T16:27:15.076Z,64.63
2022-12-06T16:30:17.034Z,64.59
2022-12-06T16:33:21.000Z,64.38
2022-12-06T16:36:32.434Z,64.42
2022-12-06T16:39:34.580Z,64.39
2022-12-06T16:42:36.138Z,64.52
2022-12-06T16:45:40.435Z,64.40
2022-12-06T16:48:41.986Z,64.43
2022-12-06T16:51:43.601Z,64.53
2022-12-06T16:54:45.371Z,64.25
2022-12-06T16:57:47.617Z,64.45
2022-12-06T17:00:49.217Z,64.50
2022-12-06T17:03:52.587Z,64.36
2022-12-06T17:06:54.102Z,64.42
2022-12-06T17:09:55.657Z,64.43
2022-12-06T17:12:58.038Z,64.21
2022-12-06T17:15:59.604Z,64.55
2022-12-06T17:19:01.853Z,64.47
2022-12-06T17:22:04.587Z,64.25
2022-12-06T17:25:06.762Z,64.27
2022-12-06T17:28:08.256Z,64.19
2022-12-06T17:31:10.251Z,64.31
2022-12-06T17:34:13.840Z,64.45
2022-12-06T17:37:15.390Z,64.50
2022-12-06T17:40:16.939Z,64.34
2022-12-06T17:43:18.840Z,64.44
2022-12-06T17:46:20.393Z,64.46
2022-12-06T17:49:24.499Z,64.18
2022-12-06T17:52:26.262Z,64.44
2022-12-06T17:55:27.798Z,64.23
2022-12-06T17:58:29.323Z,64.13
2022-12-06T18:01:58.084Z,64.09
2022-12-06T18:04:55.355Z,64.27
2022-12-06T18:07:56.939Z,64.50
2022-12-06T18:10:59.390Z,64.41
2022-12-06T18:14:01.667Z,64.41
2022-12-06T18:17:03.854Z,64.27
2022-12-06T18:20:06.119Z,64.15
2022-12-06T18:23:07.881Z,64.16
2022-12-06T18:26:13.131Z,64.17
2022-12-06T18:29:20.751Z,64.18
2022-12-06T18:32:22.492Z,64.23
2022-12-06T18:35:24.079Z,64.11
2022-12-06T18:38:26.240Z,64.19
2022-12-06T18:41:31.629Z,64.28
2022-12-06T18:44:33.308Z,64.13
2022-12-06T18:47:34.925Z,64.20
2022-12-06T18:50:41.059Z,64.32
2022-12-06T18:53:43.370Z,64.34
2022-12-06T18:56:44.970Z,64.28
2022-12-06T18:59:48.219Z,64.12
2022-12-06T19:02:49.894Z,64.19
2022-12-06T19:06:02.852Z,64.23
2022-12-06T19:09:09.450Z,64.15
2022-12-06T19:12:11.035Z,64.29
2022-12-06T19:15:13.456Z,64.12
2022-12-06T19:18:14.982Z,64.26
2022-12-06T19:21:17.597Z,64.12
2022-12-06T19:24:22.207Z,63.84
2022-12-06T19:27:23.733Z,63.95
2022-12-06T19:30:25.395Z,64.06
2022-12-06T19:33:27.711Z,64.01
2022-12-06T19:36:31.487Z,64.01
2022-12-06T19:39:33.068Z,64.21
2022-12-06T19:42:53.580Z,63.94
2022-12-06T19:45:55.130Z,63.95
2022-12-06T19:49:02.718Z,64.03
2022-12-06T19:52:04.450Z,64.19
2022-12-06T19:55:06.760Z,63.95
2022-12-06T19:58:11.216Z,63.98
2022-12-06T20:01:23.486Z,64.09
2022-12-06T20:04:29.158Z,64.09
2022-12-06T20:07:31.876Z,64.12
2022-12-06T20:10:36.408Z,64.32
2022-12-06T20:13:37.954Z,64.03
2022-12-06T20:16:40.072Z,64.38
2022-12-06T20:19:46.458Z,64.21
2022-12-06T20:22:48.072Z,64.26
2022-12-06T20:25:50.959Z,64.24
2022-12-06T20:28:52.687Z,64.20
2022-12-06T20:31:57.878Z,64.56
2022-12-06T20:34:59.648Z,64.08
2022-12-06T20:38:01.432Z,64.42
2022-12-06T20:41:10.804Z,64.06
2022-12-06T20:44:12.487Z,64.37
2022-12-06T20:47:14.240Z,64.01
2022-12-06T20:50:16.364Z,64.19
2022-12-06T20:53:17.884Z,64.04
2022-12-06T20:56:22.181Z,64.36
2022-12-06T20:59:23.916Z,64.12
2022-12-06T21:02:25.673Z,64.17
2022-12-06T21:05:27.234Z,64.32
2022-12-06T21:08:29.942Z,64.10
2022-12-06T21:11:31.826Z,64.03
2022-12-06T21:14:33.444Z,64.45
2022-12-06T21:17:35.040Z,64.33
2022-12-06T21:20:39.965Z,64.45
2022-12-06T21:23:41.472Z,64.48
2022-12-06T21:26:43.668Z,64.14
2022-12-06T21:29:45.219Z,64.08
2022-12-06T21:32:46.771Z,64.03
2022-12-06T21:35:49.212Z,64.14
2022-12-06T21:38:50.975Z,64.42
2022-12-06T21:41:53.970Z,64.33
2022-12-06T21:44:55.592Z,64.19
2022-12-06T21:47:57.116Z,64.28
2022-12-06T21:51:04.839Z,64.42
2022-12-06T21:54:06.420Z,64.08
2022-12-06T21:57:07.952Z,64.47
2022-12-06T22:00:09.943Z,64.46
2022-12-06T22:03:11.519Z,64.22
2022-12-06T22:06:13.522Z,64.33
2022-12-06T22:09:15.115Z,64.55
2022-12-06T22:12:16.958Z,64.54
2022-12-06T22:15:18.519Z,64.26
2022-12-06T22:18:20.066Z,64.64
2022-12-06T22:21:25.404Z,64.46
2022-12-06T22:24:26.910Z,64.52
2022-12-06T22:27:28.449Z,64.60
2022-12-06T22:30:29.995Z,64.37
2022-12-06T22:33:32.431Z,64.43
2022-12-06T22:36:34.067Z,64.23
2022-12-06T22:39:35.595Z,64.54
2022-12-06T22:42:37.178Z,64.40
2022-12-06T22:45:38.682Z,64.65
2022-12-06T22:48:41.277Z,64.36
2022-12-06T22:51:42.789Z,64.59
2022-12-06T22:54:44.324Z,64.66
2022-12-06T22:57:45.833Z,64.74
2022-12-06T23:00:47.324Z,64.43
2022-12-06T23:03:50.468Z,64.58
2022-12-06T23:06:52.036Z,64.63
2022-12-06T23:09:53.568Z,64.74
2022-12-06T23:12:55.102Z,64.86
2022-12-06T23:16:02.734Z,64.75
2022-12-06T23:19:04.837Z,64.36
2022-12-06T23:22:06.363Z,64.74
2022-12-06T23:25:08.503Z,64.74
2022-12-06T23:28:10.011Z,64.44
2022-12-06T23:31:14.435Z,64.87
2022-12-06T23:34:20.469Z,64.93
2022-12-06T23:37:22.003Z,64.67
2022-12-06T23:40:23.597Z,64.79
2022-12-06T23:43:25.098Z,64.71
2022-12-06T23:46:30.176Z,64.92
2022-12-06T23:49:31.922Z,64.61
2022-12-06T23:52:34.000Z,64.92
2022-12-06T23:55:35.843Z,64.91
2022-12-06T23:58:38.340Z,65.05
